sensor_id;sensor_type;location;lat;lon;timestamp;temperature;humidity
4187;DHT22;2107;52.306;10.484;2023-03-13T00:01:38;7.50;99.90
4187;DHT22;2107;52.306;10.484;2023-03-13T00:04:05;7.50;99.90
4187;DHT22;2107;52.306;10.484;2023-03-13T00:06:34;7.50;99.90
4187;DHT22;2107;52.306;10.484;2023-03-13T00:09:02;7.50;99.90
4187;DHT22;2107;52.306;10.484;2023-03-13T00:11:30;7.40;99.90
4187;DHT22;2107;52.306;10.484;2023-03-13T00:13:58;7.40;99.90
4187;DHT22;2107;52.306;10.484;2023-03-13T00:16:27;7.50;99.90
4187;DHT22;2107;52.306;10.484;2023-03-13T00:18:56;7.50;99.90
4187;DHT22;2107;52.306;10.484;2023-03-13T00:21:25;7.50;99.90
4187;DHT22;2107;52.306;10.484;2023-03-13T00:23:52;7.50;99.90
4187;DHT22;2107;52.306;10.484;2023-03-13T00:26:20;7.50;99.90
4187;DHT22;2107;52.306;10.484;2023-03-13T00:28:47;7.50;99.90
4187;DHT22;2107;52.306;10.484;2023-03-13T00:31:16;7.50;99.90
4187;DHT22;2107;52.306;10.484;2023-03-13T00:33:45;7.50;99.90
4187;DHT22;2107;52.306;10.484;2023-03-13T00:36:15;7.60;99.90
4187;DHT22;2107;52.306;10.484;2023-03-13T00:38:42;7.60;99.90
4187;DHT22;2107;52.306;10.484;2023-03-13T00:41:11;7.60;99.90
4187;DHT22;2107;52.306;10.484;2023-03-13T00:43:39;7.70;99.90
4187;DHT22;2107;52.306;10.484;2023-03-13T00:46:07;7.80;99.90
4187;DHT22;2107;52.306;10.484;2023-03-13T00:48:34;7.70;99.90
4187;DHT22;2107;52.306;10.484;2023-03-13T00:51:02;7.70;99.90
4187;DHT22;2107;52.306;10.484;2023-03-13T00:53:30;7.70;99.90
4187;DHT22;2107;52.306;10.484;2023-03-13T00:55:59;7.70;99.90
4187;DHT22;2107;52.306;10.484;2023-03-13T00:58:27;7.70;99.90
4187;DHT22;2107;52.306;10.484;2023-03-13T01:00:54;7.70;99.90
4187;DHT22;2107;52.306;10.484;2023-03-13T01:03:23;7.70;99.90
4187;DHT22;2107;52.306;10.484;2023-03-13T01:05:55;7.80;99.90
4187;DHT22;2107;52.306;10.484;2023-03-13T01:08:22;7.80;99.90
4187;DHT22;2107;52.306;10.484;2023-03-13T01:10:57;7.80;99.90
4187;DHT22;2107;52.306;10.484;2023-03-13T01:13:23;7.80;99.90
4187;DHT22;2107;52.306;10.484;2023-03-13T01:15:50;7.80;99.90
4187;DHT22;2107;52.306;10.484;2023-03-13T01:18:17;7.80;99.90
4187;DHT22;2107;52.306;10.484;2023-03-13T01:20:44;7.70;99.90
4187;DHT22;2107;52.306;10.484;2023-03-13T01:23:11;7.80;99.90
4187;DHT22;2107;52.306;10.484;2023-03-13T01:25:38;7.80;99.90
4187;DHT22;2107;52.306;10.484;2023-03-13T01:28:06;7.80;99.90
4187;DHT22;2107;52.306;10.484;2023-03-13T01:30:33;7.80;99.90
4187;DHT22;2107;52.306;10.484;2023-03-13T01:33:00;7.80;99.90
4187;DHT22;2107;52.306;10.484;2023-03-13T01:35:27;7.80;99.90
4187;DHT22;2107;52.306;10.484;2023-03-13T01:37:54;7.90;99.90
4187;DHT22;2107;52.306;10.484;2023-03-13T01:40:21;8.00;99.90
4187;DHT22;2107;52.306;10.484;2023-03-13T01:42:49;8.00;99.90
4187;DHT22;2107;52.306;10.484;2023-03-13T01:45:58;8.00;99.90
4187;DHT22;2107;52.306;10.484;2023-03-13T01:48:30;8.10;99.90
4187;DHT22;2107;52.306;10.484;2023-03-13T01:51:00;8.20;99.90
4187;DHT22;2107;52.306;10.484;2023-03-13T01:53:30;8.10;99.90
4187;DHT22;2107;52.306;10.484;2023-03-13T01:55:59;8.20;99.90
4187;DHT22;2107;52.306;10.484;2023-03-13T01:58:28;8.20;99.90
4187;DHT22;2107;52.306;10.484;2023-03-13T02:00:57;8.20;99.90
4187;DHT22;2107;52.306;10.484;2023-03-13T02:03:27;8.20;99.90
4187;DHT22;2107;52.306;10.484;2023-03-13T02:05:54;8.20;99.90
4187;DHT22;2107;52.306;10.484;2023-03-13T02:08:24;8.20;99.90
4187;DHT22;2107;52.306;10.484;2023-03-13T02:11:03;8.20;99.90
4187;DHT22;2107;52.306;10.484;2023-03-13T02:13:33;8.10;99.90
4187;DHT22;2107;52.306;10.484;2023-03-13T02:16:01;8.00;99.90
4187;DHT22;2107;52.306;10.484;2023-03-13T02:18:28;8.00;99.90
4187;DHT22;2107;52.306;10.484;2023-03-13T02:21:00;8.00;99.90
4187;DHT22;2107;52.306;10.484;2023-03-13T02:23:33;7.90;99.90
4187;DHT22;2107;52.306;10.484;2023-03-13T02:26:04;7.90;99.90
4187;DHT22;2107;52.306;10.484;2023-03-13T02:28:33;7.90;99.90
4187;DHT22;2107;52.306;10.484;2023-03-13T02:31:03;7.90;99.90
4187;DHT22;2107;52.306;10.484;2023-03-13T02:33:33;7.90;99.90
4187;DHT22;2107;52.306;10.484;2023-03-13T02:36:02;7.80;99.90
4187;DHT22;2107;52.306;10.484;2023-03-13T02:38:30;7.80;99.90
4187;DHT22;2107;52.306;10.484;2023-03-13T02:41:00;7.80;99.90
4187;DHT22;2107;52.306;10.484;2023-03-13T02:43:32;7.80;99.90
4187;DHT22;2107;52.306;10.484;2023-03-13T02:46:05;7.70;99.90
4187;DHT22;2107;52.306;10.484;2023-03-13T02:48:34;7.70;99.90
4187;DHT22;2107;52.306;10.484;2023-03-13T02:51:03;7.60;99.90
4187;DHT22;2107;52.306;10.484;2023-03-13T02:53:31;7.60;99.90
4187;DHT22;2107;52.306;10.484;2023-03-13T02:55:58;7.60;99.90
4187;DHT22;2107;52.306;10.484;2023-03-13T02:58:25;7.60;99.90
4187;DHT22;2107;52.306;10.484;2023-03-13T03:00:53;7.70;99.90
4187;DHT22;2107;52.306;10.484;2023-03-13T03:03:20;7.60;99.90
4187;DHT22;2107;52.306;10.484;2023-03-13T03:05:47;7.60;99.90
4187;DHT22;2107;52.306;10.484;2023-03-13T03:08:14;7.60;99.90
4187;DHT22;2107;52.306;10.484;2023-03-13T03:10:41;7.60;99.90
4187;DHT22;2107;52.306;10.484;2023-03-13T03:13:07;7.60;99.90
4187;DHT22;2107;52.306;10.484;2023-03-13T03:15:35;7.70;99.90
4187;DHT22;2107;52.306;10.484;2023-03-13T03:18:04;7.70;99.90
4187;DHT22;2107;52.306;10.484;2023-03-13T03:20:31;7.70;99.90
4187;DHT22;2107;52.306;10.484;2023-03-13T03:22:58;7.70;99.90
4187;DHT22;2107;52.306;10.484;2023-03-13T03:25:24;7.70;99.90
4187;DHT22;2107;52.306;10.484;2023-03-13T03:27:51;7.70;99.90
4187;DHT22;2107;52.306;10.484;2023-03-13T03:30:18;7.70;99.90
4187;DHT22;2107;52.306;10.484;2023-03-13T03:32:45;7.70;99.90
4187;DHT22;2107;52.306;10.484;2023-03-13T03:35:13;7.70;99.90
4187;DHT22;2107;52.306;10.484;2023-03-13T03:37:40;7.80;99.90
4187;DHT22;2107;52.306;10.484;2023-03-13T03:40:08;7.70;99.90
4187;DHT22;2107;52.306;10.484;2023-03-13T03:42:35;7.80;99.90
4187;DHT22;2107;52.306;10.484;2023-03-13T03:45:03;7.90;99.90
4187;DHT22;2107;52.306;10.484;2023-03-13T03:47:30;7.90;99.90
4187;DHT22;2107;52.306;10.484;2023-03-13T03:49:56;7.90;99.90
4187;DHT22;2107;52.306;10.484;2023-03-13T03:52:24;7.90;99.90
4187;DHT22;2107;52.306;10.484;2023-03-13T03:54:51;7.80;99.90
4187;DHT22;2107;52.306;10.484;2023-03-13T03:57:18;7.80;99.90
4187;DHT22;2107;52.306;10.484;2023-03-13T03:59:45;7.80;99.90
4187;DHT22;2107;52.306;10.484;2023-03-13T04:02:12;7.90;99.90
4187;DHT22;2107;52.306;10.484;2023-03-13T04:04:39;7.90;99.90
4187;DHT22;2107;52.306;10.484;2023-03-13T04:07:05;7.90;99.90
4187;DHT22;2107;52.306;10.484;2023-03-13T04:09:34;7.90;99.90
4187;DHT22;2107;52.306;10.484;2023-03-13T04:12:00;7.90;99.90
4187;DHT22;2107;52.306;10.484;2023-03-13T04:14:27;7.90;99.90
4187;DHT22;2107;52.306;10.484;2023-03-13T04:16:54;7.90;99.90
4187;DHT22;2107;52.306;10.484;2023-03-13T04:19:21;7.90;99.90
4187;DHT22;2107;52.306;10.484;2023-03-13T04:21:48;7.90;99.90
4187;DHT22;2107;52.306;10.484;2023-03-13T04:24:15;8.00;99.90
4187;DHT22;2107;52.306;10.484;2023-03-13T04:26:43;7.90;99.90
4187;DHT22;2107;52.306;10.484;2023-03-13T04:29:10;7.90;99.90
4187;DHT22;2107;52.306;10.484;2023-03-13T04:31:36;7.90;99.90
4187;DHT22;2107;52.306;10.484;2023-03-13T04:34:03;7.90;99.90
4187;DHT22;2107;52.306;10.484;2023-03-13T04:36:30;7.80;99.90
4187;DHT22;2107;52.306;10.484;2023-03-13T04:38:57;7.90;99.90
4187;DHT22;2107;52.306;10.484;2023-03-13T04:41:24;7.90;99.90
4187;DHT22;2107;52.306;10.484;2023-03-13T04:43:52;7.80;99.90
4187;DHT22;2107;52.306;10.484;2023-03-13T04:46:19;7.90;99.90
4187;DHT22;2107;52.306;10.484;2023-03-13T04:48:45;7.90;99.90
4187;DHT22;2107;52.306;10.484;2023-03-13T04:51:12;7.80;99.90
4187;DHT22;2107;52.306;10.484;2023-03-13T04:53:39;7.80;99.90
4187;DHT22;2107;52.306;10.484;2023-03-13T04:56:06;7.80;99.90
4187;DHT22;2107;52.306;10.484;2023-03-13T04:58:33;7.80;99.90
4187;DHT22;2107;52.306;10.484;2023-03-13T05:01:01;7.80;99.90
4187;DHT22;2107;52.306;10.484;2023-03-13T05:03:28;7.90;99.90
4187;DHT22;2107;52.306;10.484;2023-03-13T05:05:55;7.90;99.90
4187;DHT22;2107;52.306;10.484;2023-03-13T05:08:21;8.00;99.90
4187;DHT22;2107;52.306;10.484;2023-03-13T05:10:48;8.10;99.90
4187;DHT22;2107;52.306;10.484;2023-03-13T05:13:15;8.10;99.90
4187;DHT22;2107;52.306;10.484;2023-03-13T05:15:42;8.10;99.90
4187;DHT22;2107;52.306;10.484;2023-03-13T05:18:11;8.20;99.90
4187;DHT22;2107;52.306;10.484;2023-03-13T05:20:38;8.20;99.90
4187;DHT22;2107;52.306;10.484;2023-03-13T05:23:05;8.30;99.90
4187;DHT22;2107;52.306;10.484;2023-03-13T05:25:31;8.20;99.90
4187;DHT22;2107;52.306;10.484;2023-03-13T05:27:58;8.20;99.90
4187;DHT22;2107;52.306;10.484;2023-03-13T05:30:25;8.20;99.90
4187;DHT22;2107;52.306;10.484;2023-03-13T05:32:52;8.20;99.90
4187;DHT22;2107;52.306;10.484;2023-03-13T05:35:21;8.20;99.90
4187;DHT22;2107;52.306;10.484;2023-03-13T05:37:47;8.20;99.90
4187;DHT22;2107;52.306;10.484;2023-03-13T05:40:15;8.30;99.90
4187;DHT22;2107;52.306;10.484;2023-03-13T05:42:42;8.20;99.90
4187;DHT22;2107;52.306;10.484;2023-03-13T05:45:09;8.30;99.90
4187;DHT22;2107;52.306;10.484;2023-03-13T05:47:37;8.30;99.90
4187;DHT22;2107;52.306;10.484;2023-03-13T05:50:05;8.20;99.90
4187;DHT22;2107;52.306;10.484;2023-03-13T05:52:34;8.30;99.90
4187;DHT22;2107;52.306;10.484;2023-03-13T05:55:01;8.30;99.90
4187;DHT22;2107;52.306;10.484;2023-03-13T05:57:27;8.20;99.90
4187;DHT22;2107;52.306;10.484;2023-03-13T05:59:54;8.30;99.90
4187;DHT22;2107;52.306;10.484;2023-03-13T06:02:21;8.30;99.90
4187;DHT22;2107;52.306;10.484;2023-03-13T06:04:48;8.30;99.90
4187;DHT22;2107;52.306;10.484;2023-03-13T06:07:15;8.30;99.90
4187;DHT22;2107;52.306;10.484;2023-03-13T06:09:43;8.30;99.90
4187;DHT22;2107;52.306;10.484;2023-03-13T06:12:11;8.40;99.90
4187;DHT22;2107;52.306;10.484;2023-03-13T06:14:37;8.50;99.90
4187;DHT22;2107;52.306;10.484;2023-03-13T06:17:05;8.40;99.90
4187;DHT22;2107;52.306;10.484;2023-03-13T06:19:32;8.40;99.90
4187;DHT22;2107;52.306;10.484;2023-03-13T06:21:59;8.50;99.90
4187;DHT22;2107;52.306;10.484;2023-03-13T06:24:26;8.50;99.90
4187;DHT22;2107;52.306;10.484;2023-03-13T06:26:54;8.60;99.90
4187;DHT22;2107;52.306;10.484;2023-03-13T06:29:21;8.60;99.90
4187;DHT22;2107;52.306;10.484;2023-03-13T06:31:48;8.60;99.90
4187;DHT22;2107;52.306;10.484;2023-03-13T06:34:16;8.60;99.90
4187;DHT22;2107;52.306;10.484;2023-03-13T06:36:43;8.60;99.90
4187;DHT22;2107;52.306;10.484;2023-03-13T06:39:10;8.70;99.90
4187;DHT22;2107;52.306;10.484;2023-03-13T06:41:37;8.70;99.90
4187;DHT22;2107;52.306;10.484;2023-03-13T06:44:05;8.80;99.90
4187;DHT22;2107;52.306;10.484;2023-03-13T06:46:32;8.80;99.90
4187;DHT22;2107;52.306;10.484;2023-03-13T06:48:59;8.80;99.90
4187;DHT22;2107;52.306;10.484;2023-03-13T06:51:29;9.00;99.90
4187;DHT22;2107;52.306;10.484;2023-03-13T06:53:56;9.10;99.90
4187;DHT22;2107;52.306;10.484;2023-03-13T06:56:23;9.20;99.90
4187;DHT22;2107;52.306;10.484;2023-03-13T06:58:50;9.20;99.90
4187;DHT22;2107;52.306;10.484;2023-03-13T07:01:18;9.30;99.90
4187;DHT22;2107;52.306;10.484;2023-03-13T07:03:46;9.40;99.90
4187;DHT22;2107;52.306;10.484;2023-03-13T07:06:14;9.50;99.90
4187;DHT22;2107;52.306;10.484;2023-03-13T07:08:41;9.50;99.90
4187;DHT22;2107;52.306;10.484;2023-03-13T07:11:10;9.50;99.90
4187;DHT22;2107;52.306;10.484;2023-03-13T07:13:37;9.60;99.90
4187;DHT22;2107;52.306;10.484;2023-03-13T07:16:06;9.60;99.90
4187;DHT22;2107;52.306;10.484;2023-03-13T07:18:35;9.60;99.90
4187;DHT22;2107;52.306;10.484;2023-03-13T07:21:03;9.60;99.90
4187;DHT22;2107;52.306;10.484;2023-03-13T07:23:32;9.70;99.90
4187;DHT22;2107;52.306;10.484;2023-03-13T07:26:00;9.70;99.90
4187;DHT22;2107;52.306;10.484;2023-03-13T07:28:29;9.50;99.90
4187;DHT22;2107;52.306;10.484;2023-03-13T07:31:03;9.60;99.90
4187;DHT22;2107;52.306;10.484;2023-03-13T07:33:30;9.50;99.90
4187;DHT22;2107;52.306;10.484;2023-03-13T07:35:59;9.60;99.90
4187;DHT22;2107;52.306;10.484;2023-03-13T07:38:25;9.50;99.90
4187;DHT22;2107;52.306;10.484;2023-03-13T07:40:54;9.60;99.90
4187;DHT22;2107;52.306;10.484;2023-03-13T07:43:21;9.60;99.90
4187;DHT22;2107;52.306;10.484;2023-03-13T07:45:53;9.60;99.90
4187;DHT22;2107;52.306;10.484;2023-03-13T07:48:21;9.70;99.90
4187;DHT22;2107;52.306;10.484;2023-03-13T07:50:49;9.70;99.90
4187;DHT22;2107;52.306;10.484;2023-03-13T07:53:17;9.70;99.90
4187;DHT22;2107;52.306;10.484;2023-03-13T07:55:54;9.70;99.90
4187;DHT22;2107;52.306;10.484;2023-03-13T07:58:21;9.90;99.90
4187;DHT22;2107;52.306;10.484;2023-03-13T08:00:48;10.00;99.90
4187;DHT22;2107;52.306;10.484;2023-03-13T08:03:15;10.00;99.90
4187;DHT22;2107;52.306;10.484;2023-03-13T08:05:42;10.10;99.90
4187;DHT22;2107;52.306;10.484;2023-03-13T08:08:09;10.10;99.90
4187;DHT22;2107;52.306;10.484;2023-03-13T08:10:38;10.00;99.90
4187;DHT22;2107;52.306;10.484;2023-03-13T08:13:05;9.90;99.90
4187;DHT22;2107;52.306;10.484;2023-03-13T08:15:31;9.90;99.90
4187;DHT22;2107;52.306;10.484;2023-03-13T08:17:58;9.80;99.90
4187;DHT22;2107;52.306;10.484;2023-03-13T08:20:25;9.90;99.90
4187;DHT22;2107;52.306;10.484;2023-03-13T08:22:54;10.00;99.90
4187;DHT22;2107;52.306;10.484;2023-03-13T08:25:21;10.00;99.90
4187;DHT22;2107;52.306;10.484;2023-03-13T08:27:49;10.00;99.90
4187;DHT22;2107;52.306;10.484;2023-03-13T08:30:17;10.10;99.90
4187;DHT22;2107;52.306;10.484;2023-03-13T08:32:44;10.10;99.90
4187;DHT22;2107;52.306;10.484;2023-03-13T08:35:10;10.10;99.90
4187;DHT22;2107;52.306;10.484;2023-03-13T08:37:37;10.20;99.90
4187;DHT22;2107;52.306;10.484;2023-03-13T08:40:05;10.20;99.90
4187;DHT22;2107;52.306;10.484;2023-03-13T08:42:36;10.30;99.90
4187;DHT22;2107;52.306;10.484;2023-03-13T08:45:06;10.30;99.90
4187;DHT22;2107;52.306;10.484;2023-03-13T08:47:33;10.30;99.90
4187;DHT22;2107;52.306;10.484;2023-03-13T08:50:00;10.30;99.90
4187;DHT22;2107;52.306;10.484;2023-03-13T08:52:27;10.40;99.90
4187;DHT22;2107;52.306;10.484;2023-03-13T08:54:54;10.40;99.90
4187;DHT22;2107;52.306;10.484;2023-03-13T08:57:21;10.40;99.90
4187;DHT22;2107;52.306;10.484;2023-03-13T08:59:48;10.30;99.90
4187;DHT22;2107;52.306;10.484;2023-03-13T09:02:17;10.40;99.90
4187;DHT22;2107;52.306;10.484;2023-03-13T09:04:46;10.60;99.90
4187;DHT22;2107;52.306;10.484;2023-03-13T09:07:13;10.70;99.90
4187;DHT22;2107;52.306;10.484;2023-03-13T09:09:41;10.70;99.90
4187;DHT22;2107;52.306;10.484;2023-03-13T09:12:08;10.70;99.90
4187;DHT22;2107;52.306;10.484;2023-03-13T09:14:35;10.80;99.90
4187;DHT22;2107;52.306;10.484;2023-03-13T09:17:02;10.80;99.90
4187;DHT22;2107;52.306;10.484;2023-03-13T09:19:31;10.90;99.90
4187;DHT22;2107;52.306;10.484;2023-03-13T09:21:58;11.00;99.90
4187;DHT22;2107;52.306;10.484;2023-03-13T09:24:25;11.20;99.90
4187;DHT22;2107;52.306;10.484;2023-03-13T09:26:52;11.30;99.90
4187;DHT22;2107;52.306;10.484;2023-03-13T09:29:19;11.20;99.90
4187;DHT22;2107;52.306;10.484;2023-03-13T09:31:46;11.30;99.90
4187;DHT22;2107;52.306;10.484;2023-03-13T09:34:13;11.30;99.90
4187;DHT22;2107;52.306;10.484;2023-03-13T09:36:41;11.40;99.90
4187;DHT22;2107;52.306;10.484;2023-03-13T09:39:08;11.60;99.90
4187;DHT22;2107;52.306;10.484;2023-03-13T09:41:38;11.60;99.90
4187;DHT22;2107;52.306;10.484;2023-03-13T09:44:14;11.80;99.90
4187;DHT22;2107;52.306;10.484;2023-03-13T09:46:48;11.90;99.90
4187;DHT22;2107;52.306;10.484;2023-03-13T09:49:28;12.00;99.90
4187;DHT22;2107;52.306;10.484;2023-03-13T09:52:04;12.20;99.90
4187;DHT22;2107;52.306;10.484;2023-03-13T09:54:38;12.20;99.90
4187;DHT22;2107;52.306;10.484;2023-03-13T09:57:14;12.20;99.90
4187;DHT22;2107;52.306;10.484;2023-03-13T09:59:46;12.40;99.90
4187;DHT22;2107;52.306;10.484;2023-03-13T10:02:21;12.50;99.90
4187;DHT22;2107;52.306;10.484;2023-03-13T10:04:54;12.60;99.90
4187;DHT22;2107;52.306;10.484;2023-03-13T10:07:23;12.80;99.90
4187;DHT22;2107;52.306;10.484;2023-03-13T10:09:50;12.90;99.90
4187;DHT22;2107;52.306;10.484;2023-03-13T10:12:19;13.00;99.90
4187;DHT22;2107;52.306;10.484;2023-03-13T10:14:53;13.00;99.90
4187;DHT22;2107;52.306;10.484;2023-03-13T10:17:30;12.80;99.90
4187;DHT22;2107;52.306;10.484;2023-03-13T10:20:00;12.80;99.90
4187;DHT22;2107;52.306;10.484;2023-03-13T10:22:34;12.80;99.90
4187;DHT22;2107;52.306;10.484;2023-03-13T10:25:05;12.80;99.90
4187;DHT22;2107;52.306;10.484;2023-03-13T10:27:42;12.80;99.90
4187;DHT22;2107;52.306;10.484;2023-03-13T10:30:19;12.90;99.90
4187;DHT22;2107;52.306;10.484;2023-03-13T10:32:47;13.00;99.90
4187;DHT22;2107;52.306;10.484;2023-03-13T10:35:21;13.00;99.90
4187;DHT22;2107;52.306;10.484;2023-03-13T10:37:49;13.00;99.90
4187;DHT22;2107;52.306;10.484;2023-03-13T10:40:26;13.00;99.90
4187;DHT22;2107;52.306;10.484;2023-03-13T10:42:59;13.10;99.90
4187;DHT22;2107;52.306;10.484;2023-03-13T10:45:32;13.10;99.90
4187;DHT22;2107;52.306;10.484;2023-03-13T10:48:02;13.10;99.90
4187;DHT22;2107;52.306;10.484;2023-03-13T10:50:33;13.20;99.90
4187;DHT22;2107;52.306;10.484;2023-03-13T10:53:20;13.20;99.90
4187;DHT22;2107;52.306;10.484;2023-03-13T10:55:47;13.30;99.90
4187;DHT22;2107;52.306;10.484;2023-03-13T10:58:18;13.30;99.90
4187;DHT22;2107;52.306;10.484;2023-03-13T11:00:46;13.40;99.90
4187;DHT22;2107;52.306;10.484;2023-03-13T11:03:16;13.50;99.90
4187;DHT22;2107;52.306;10.484;2023-03-13T11:05:45;13.60;99.90
4187;DHT22;2107;52.306;10.484;2023-03-13T11:08:22;13.80;99.90
4187;DHT22;2107;52.306;10.484;2023-03-13T11:10:55;13.90;99.90
4187;DHT22;2107;52.306;10.484;2023-03-13T11:13:34;13.80;99.90
4187;DHT22;2107;52.306;10.484;2023-03-13T11:16:17;13.80;99.90
4187;DHT22;2107;52.306;10.484;2023-03-13T11:19:07;13.90;99.90
4187;DHT22;2107;52.306;10.484;2023-03-13T11:21:43;14.10;99.90
4187;DHT22;2107;52.306;10.484;2023-03-13T11:24:20;14.50;99.90
4187;DHT22;2107;52.306;10.484;2023-03-13T11:26:55;14.80;99.90
4187;DHT22;2107;52.306;10.484;2023-03-13T11:29:30;14.90;99.90
4187;DHT22;2107;52.306;10.484;2023-03-13T11:32:06;15.10;99.90
4187;DHT22;2107;52.306;10.484;2023-03-13T11:34:41;14.90;99.90
4187;DHT22;2107;52.306;10.484;2023-03-13T11:37:11;15.30;99.90
4187;DHT22;2107;52.306;10.484;2023-03-13T11:39:52;15.60;99.90
4187;DHT22;2107;52.306;10.484;2023-03-13T11:42:41;16.40;99.90
4187;DHT22;2107;52.306;10.484;2023-03-13T11:45:20;16.60;99.90
4187;DHT22;2107;52.306;10.484;2023-03-13T11:47:56;16.70;99.90
4187;DHT22;2107;52.306;10.484;2023-03-13T11:50:34;16.40;99.90
4187;DHT22;2107;52.306;10.484;2023-03-13T11:53:25;16.30;99.90
4187;DHT22;2107;52.306;10.484;2023-03-13T11:56:02;16.50;99.90
4187;DHT22;2107;52.306;10.484;2023-03-13T11:58:48;16.50;99.90
4187;DHT22;2107;52.306;10.484;2023-03-13T12:01:22;16.90;99.90
4187;DHT22;2107;52.306;10.484;2023-03-13T12:03:55;16.70;99.90
4187;DHT22;2107;52.306;10.484;2023-03-13T12:06:28;16.50;99.90
4187;DHT22;2107;52.306;10.484;2023-03-13T12:09:00;16.50;99.90
4187;DHT22;2107;52.306;10.484;2023-03-13T12:11:32;16.50;99.90
4187;DHT22;2107;52.306;10.484;2023-03-13T12:14:03;16.50;99.90
4187;DHT22;2107;52.306;10.484;2023-03-13T12:16:38;16.50;99.90
4187;DHT22;2107;52.306;10.484;2023-03-13T12:19:10;16.70;99.90
4187;DHT22;2107;52.306;10.484;2023-03-13T12:21:42;16.40;99.90
4187;DHT22;2107;52.306;10.484;2023-03-13T12:24:17;16.00;99.90
4187;DHT22;2107;52.306;10.484;2023-03-13T12:26:50;16.00;99.90
4187;DHT22;2107;52.306;10.484;2023-03-13T12:29:26;15.80;99.90
4187;DHT22;2107;52.306;10.484;2023-03-13T12:31:59;15.80;99.90
4187;DHT22;2107;52.306;10.484;2023-03-13T12:34:32;15.80;99.90
4187;DHT22;2107;52.306;10.484;2023-03-13T12:37:04;16.00;99.90
4187;DHT22;2107;52.306;10.484;2023-03-13T12:39:36;16.10;99.90
4187;DHT22;2107;52.306;10.484;2023-03-13T12:42:16;16.20;99.90
4187;DHT22;2107;52.306;10.484;2023-03-13T12:44:45;16.40;99.90
4187;DHT22;2107;52.306;10.484;2023-03-13T12:47:17;16.40;99.90
4187;DHT22;2107;52.306;10.484;2023-03-13T12:50:02;16.40;99.90
4187;DHT22;2107;52.306;10.484;2023-03-13T12:52:46;16.40;99.90
4187;DHT22;2107;52.306;10.484;2023-03-13T12:55:28;16.40;99.90
4187;DHT22;2107;52.306;10.484;2023-03-13T12:58:10;16.40;99.90
4187;DHT22;2107;52.306;10.484;2023-03-13T13:00:41;16.50;99.90
4187;DHT22;2107;52.306;10.484;2023-03-13T13:03:17;16.60;99.90
4187;DHT22;2107;52.306;10.484;2023-03-13T13:06:01;16.40;99.90
4187;DHT22;2107;52.306;10.484;2023-03-13T13:08:33;16.30;99.90
4187;DHT22;2107;52.306;10.484;2023-03-13T13:17:27;17.30;99.90
4187;DHT22;2107;52.306;10.484;2023-03-13T13:19:56;17.60;99.90
4187;DHT22;2107;52.306;10.484;2023-03-13T13:22:47;17.80;99.90
4187;DHT22;2107;52.306;10.484;2023-03-13T13:25:31;17.60;99.90
4187;DHT22;2107;52.306;10.484;2023-03-13T13:28:23;17.40;99.90
4187;DHT22;2107;52.306;10.484;2023-03-13T13:30:55;17.40;99.90
4187;DHT22;2107;52.306;10.484;2023-03-13T13:33:38;17.60;99.90
4187;DHT22;2107;52.306;10.484;2023-03-13T13:36:29;17.70;99.90
4187;DHT22;2107;52.306;10.484;2023-03-13T13:38:56;17.90;99.90
4187;DHT22;2107;52.306;10.484;2023-03-13T13:41:36;18.10;99.90
4187;DHT22;2107;52.306;10.484;2023-03-13T13:44:26;18.60;99.90
4187;DHT22;2107;52.306;10.484;2023-03-13T13:46:57;18.60;99.90
4187;DHT22;2107;52.306;10.484;2023-03-13T13:49:50;18.50;99.90
4187;DHT22;2107;52.306;10.484;2023-03-13T13:52:38;18.40;99.90
4187;DHT22;2107;52.306;10.484;2023-03-13T13:55:28;18.40;99.90
4187;DHT22;2107;52.306;10.484;2023-03-13T13:57:58;18.30;99.90
4187;DHT22;2107;52.306;10.484;2023-03-13T14:00:26;18.00;99.90
4187;DHT22;2107;52.306;10.484;2023-03-13T14:02:56;18.20;99.90
4187;DHT22;2107;52.306;10.484;2023-03-13T14:05:25;18.50;99.90
4187;DHT22;2107;52.306;10.484;2023-03-13T14:07:59;18.60;99.90
4187;DHT22;2107;52.306;10.484;2023-03-13T14:10:41;19.30;99.90
4187;DHT22;2107;52.306;10.484;2023-03-13T14:13:13;19.10;99.90
4187;DHT22;2107;52.306;10.484;2023-03-13T14:15:42;19.00;99.90
4187;DHT22;2107;52.306;10.484;2023-03-13T14:18:14;19.40;99.90
4187;DHT22;2107;52.306;10.484;2023-03-13T14:20:52;19.30;99.90
4187;DHT22;2107;52.306;10.484;2023-03-13T14:23:32;19.80;99.90
4187;DHT22;2107;52.306;10.484;2023-03-13T14:26:12;20.60;99.90
4187;DHT22;2107;52.306;10.484;2023-03-13T14:28:42;19.80;99.90
4187;DHT22;2107;52.306;10.484;2023-03-13T14:31:09;19.20;99.90
4187;DHT22;2107;52.306;10.484;2023-03-13T14:33:47;18.50;99.90
4187;DHT22;2107;52.306;10.484;2023-03-13T14:36:14;18.10;99.90
4187;DHT22;2107;52.306;10.484;2023-03-13T14:38:50;18.10;99.90
4187;DHT22;2107;52.306;10.484;2023-03-13T14:41:27;18.40;99.90
4187;DHT22;2107;52.306;10.484;2023-03-13T14:44:01;18.10;99.90
4187;DHT22;2107;52.306;10.484;2023-03-13T14:46:31;18.20;99.90
4187;DHT22;2107;52.306;10.484;2023-03-13T14:49:07;18.20;99.90
4187;DHT22;2107;52.306;10.484;2023-03-13T14:51:37;17.60;99.90
4187;DHT22;2107;52.306;10.484;2023-03-13T14:54:05;16.90;99.90
4187;DHT22;2107;52.306;10.484;2023-03-13T14:56:33;17.40;99.90
4187;DHT22;2107;52.306;10.484;2023-03-13T14:59:11;17.50;99.90
4187;DHT22;2107;52.306;10.484;2023-03-13T15:01:40;17.00;99.90
4187;DHT22;2107;52.306;10.484;2023-03-13T15:04:08;17.50;99.90
4187;DHT22;2107;52.306;10.484;2023-03-13T15:06:35;17.40;99.90
4187;DHT22;2107;52.306;10.484;2023-03-13T15:09:17;16.70;99.90
4187;DHT22;2107;52.306;10.484;2023-03-13T15:11:56;16.40;99.90
4187;DHT22;2107;52.306;10.484;2023-03-13T15:14:37;16.10;99.90
4187;DHT22;2107;52.306;10.484;2023-03-13T15:17:12;15.90;99.90
4187;DHT22;2107;52.306;10.484;2023-03-13T15:19:41;15.80;99.90
4187;DHT22;2107;52.306;10.484;2023-03-13T15:22:12;15.90;99.90
4187;DHT22;2107;52.306;10.484;2023-03-13T15:24:39;16.00;99.90
4187;DHT22;2107;52.306;10.484;2023-03-13T15:27:14;15.90;99.90
4187;DHT22;2107;52.306;10.484;2023-03-13T15:29:41;15.70;99.90
4187;DHT22;2107;52.306;10.484;2023-03-13T15:32:11;15.70;99.90
4187;DHT22;2107;52.306;10.484;2023-03-13T15:34:41;15.70;99.90
4187;DHT22;2107;52.306;10.484;2023-03-13T15:37:11;15.70;99.90
4187;DHT22;2107;52.306;10.484;2023-03-13T15:39:37;15.60;99.90
4187;DHT22;2107;52.306;10.484;2023-03-13T15:42:04;15.60;99.90
4187;DHT22;2107;52.306;10.484;2023-03-13T15:44:31;15.50;99.90
4187;DHT22;2107;52.306;10.484;2023-03-13T15:46:58;15.50;99.90
4187;DHT22;2107;52.306;10.484;2023-03-13T15:49:25;15.40;99.90
4187;DHT22;2107;52.306;10.484;2023-03-13T15:51:53;15.30;99.90
4187;DHT22;2107;52.306;10.484;2023-03-13T15:54:20;15.20;99.90
4187;DHT22;2107;52.306;10.484;2023-03-13T15:56:47;15.00;99.90
4187;DHT22;2107;52.306;10.484;2023-03-13T15:59:14;15.10;99.90
4187;DHT22;2107;52.306;10.484;2023-03-13T16:01:41;15.10;99.90
4187;DHT22;2107;52.306;10.484;2023-03-13T16:04:09;15.10;99.90
4187;DHT22;2107;52.306;10.484;2023-03-13T16:06:36;15.10;99.90
4187;DHT22;2107;52.306;10.484;2023-03-13T16:09:05;15.00;99.90
4187;DHT22;2107;52.306;10.484;2023-03-13T16:11:32;15.10;99.90
4187;DHT22;2107;52.306;10.484;2023-03-13T16:13:59;15.00;99.90
4187;DHT22;2107;52.306;10.484;2023-03-13T16:16:28;14.90;99.90
4187;DHT22;2107;52.306;10.484;2023-03-13T16:18:57;14.90;99.90
4187;DHT22;2107;52.306;10.484;2023-03-13T16:21:25;15.00;99.90